createdAt,value
2023-01-05T00:02:43.962Z,5.10
2023-01-05T00:05:29.638Z,5.45
2023-01-05T00:08:14.679Z,5.30
2023-01-05T00:11:30.682Z,5.03
2023-01-05T00:14:40.172Z,5.47
2023-01-05T00:17:44.112Z,4.93
2023-01-05T00:20:47.782Z,5.10
2023-01-05T00:23:33.013Z,4.90
2023-01-05T00:26:17.900Z,5.05
2023-01-05T00:29:03.134Z,5.43
2023-01-05T00:31:48.160Z,5.70
2023-01-05T00:34:33.084Z,4.72
2023-01-05T00:37:19.933Z,5.03
2023-01-05T00:40:10.651Z,5.03
2023-01-05T00:42:55.756Z,4.38
2023-01-05T00:45:41.055Z,5.57
2023-01-05T00:48:26.403Z,5.10
2023-01-05T00:51:11.657Z,4.85
2023-01-05T00:53:56.543Z,5.03
2023-01-05T00:56:41.838Z,5.32
2023-01-05T00:59:27.486Z,5.72
2023-01-05T01:02:12.473Z,5.30
2023-01-05T01:04:57.962Z,6.43
2023-01-05T01:07:42.932Z,6.22
2023-01-05T01:10:28.213Z,5.97
2023-01-05T01:13:13.229Z,5.10
2023-01-05T01:15:58.526Z,5.72
2023-01-05T01:18:43.816Z,5.65
2023-01-05T01:21:28.996Z,5.40
2023-01-05T01:24:20.207Z,5.43
2023-01-05T01:27:05.605Z,4.95
2023-01-05T01:29:50.654Z,6.18
2023-01-05T01:32:35.661Z,4.72
2023-01-05T01:35:20.446Z,5.80
2023-01-05T01:38:05.516Z,5.50
2023-01-05T01:40:51.270Z,5.55
2023-01-05T01:43:51.573Z,5.70
2023-01-05T01:46:36.568Z,5.53
2023-01-05T01:49:21.905Z,4.72
2023-01-05T01:52:07.824Z,5.63
2023-01-05T01:54:53.197Z,4.95
2023-01-05T01:57:39.340Z,5.65
2023-01-05T02:00:24.471Z,5.43
2023-01-05T02:03:10.454Z,5.55
2023-01-05T02:05:55.912Z,5.43
2023-01-05T02:08:41.034Z,5.50
2023-01-05T02:11:47.761Z,5.47
2023-01-05T02:14:53.326Z,5.03
2023-01-05T02:17:45.091Z,5.07
2023-01-05T02:20:45.855Z,5.72
2023-01-05T02:23:52.848Z,5.80
2023-01-05T02:27:01.486Z,5.07
2023-01-05T02:30:13.838Z,5.78
2023-01-05T02:33:27.985Z,5.72
2023-01-05T02:36:37.054Z,4.50
2023-01-05T02:39:41.917Z,4.40
2023-01-05T02:42:30.805Z,5.15
2023-01-05T02:45:16.882Z,4.90
2023-01-05T02:48:02.288Z,5.22
2023-01-05T02:51:00.923Z,5.15
2023-01-05T02:53:52.368Z,5.20
2023-01-05T02:57:02.960Z,5.15
2023-01-05T02:59:53.461Z,6.40
2023-01-05T03:02:42.105Z,4.72
2023-01-05T03:05:38.324Z,4.80
2023-01-05T03:08:32.361Z,5.72
2023-01-05T03:11:37.254Z,5.55
2023-01-05T03:14:28.347Z,5.90
2023-01-05T03:17:18.433Z,5.78
2023-01-05T03:20:04.917Z,5.88
2023-01-05T03:23:10.729Z,5.43
2023-01-05T03:26:14.901Z,5.43
2023-01-05T03:29:20.843Z,4.13
2023-01-05T03:32:35.123Z,5.45
2023-01-05T03:35:33.103Z,5.90
2023-01-05T03:38:34.021Z,5.70
2023-01-05T03:41:19.871Z,5.75
2023-01-05T03:44:06.083Z,5.60
2023-01-05T03:46:51.607Z,4.78
2023-01-05T03:49:37.542Z,5.82
2023-01-05T03:52:22.405Z,4.72
2023-01-05T03:55:07.939Z,4.95
2023-01-05T03:57:53.637Z,5.72
2023-01-05T04:00:38.661Z,5.65
2023-01-05T04:03:29.441Z,5.93
2023-01-05T04:06:17.531Z,4.78
2023-01-05T04:09:03.113Z,5.38
2023-01-05T04:11:47.972Z,4.60
2023-01-05T04:14:33.199Z,3.88
2023-01-05T04:17:18.433Z,5.05
2023-01-05T04:20:05.930Z,4.68
2023-01-05T04:22:51.334Z,4.97
2023-01-05T04:25:36.457Z,4.82
2023-01-05T04:28:21.613Z,5.57
2023-01-05T04:31:06.860Z,5.88
2023-01-05T04:33:52.142Z,5.47
2023-01-05T04:36:37.459Z,5.50
2023-01-05T04:39:22.643Z,5.75
2023-01-05T04:42:08.101Z,5.75
2023-01-05T04:44:53.334Z,5.78
2023-01-05T04:47:38.555Z,5.20
2023-01-05T04:50:24.182Z,5.75
2023-01-05T04:53:10.073Z,5.90
2023-01-05T04:55:55.177Z,5.93
2023-01-05T04:58:40.353Z,6.03
2023-01-05T05:01:26.404Z,5.72
2023-01-05T05:04:11.541Z,5.90
2023-01-05T05:06:56.765Z,5.35
2023-01-05T05:09:41.915Z,6.63
2023-01-05T05:12:26.838Z,5.68
2023-01-05T05:15:16.846Z,5.35
2023-01-05T05:18:08.680Z,6.20
2023-01-05T05:20:54.842Z,5.13
2023-01-05T05:23:39.969Z,6.18
2023-01-05T05:26:25.241Z,7.07
2023-01-05T05:29:10.271Z,5.70
2023-01-05T05:31:55.564Z,5.68
2023-01-05T05:34:40.840Z,6.15
2023-01-05T05:37:25.846Z,5.28
2023-01-05T05:40:12.277Z,6.75
2023-01-05T05:42:57.451Z,6.85
2023-01-05T05:45:49.708Z,6.00
2023-01-05T05:48:35.903Z,5.60
2023-01-05T05:51:21.229Z,6.35
2023-01-05T05:54:06.810Z,6.50
2023-01-05T05:56:51.772Z,5.40
2023-01-05T05:59:36.658Z,5.78
2023-01-05T06:02:21.952Z,6.97
2023-01-05T06:05:07.416Z,6.03
2023-01-05T06:07:52.864Z,5.82
2023-01-05T06:10:38.265Z,5.95
2023-01-05T06:13:24.276Z,5.10
2023-01-05T06:16:11.836Z,6.68
2023-01-05T06:18:57.346Z,5.72
2023-01-05T06:21:42.517Z,6.07
2023-01-05T06:24:27.733Z,5.63
2023-01-05T06:27:12.986Z,5.88
2023-01-05T06:29:58.333Z,5.97
2023-01-05T06:32:43.546Z,6.60
2023-01-05T06:35:28.843Z,7.25
2023-01-05T06:38:16.043Z,5.50
2023-01-05T06:41:00.935Z,5.55
2023-01-05T06:43:46.363Z,6.47
2023-01-05T06:46:31.726Z,6.47
2023-01-05T06:49:16.540Z,6.78
2023-01-05T06:52:01.586Z,6.40
2023-01-05T06:54:46.744Z,5.65
2023-01-05T06:57:31.862Z,5.80
2023-01-05T07:00:17.073Z,6.20
2023-01-05T07:03:02.066Z,6.30
2023-01-05T07:05:47.228Z,6.18
2023-01-05T07:08:32.464Z,6.32
2023-01-05T07:11:17.548Z,6.13
2023-01-05T07:14:02.689Z,5.88
2023-01-05T07:16:47.721Z,6.38
2023-01-05T07:19:32.652Z,6.72
2023-01-05T07:22:18.302Z,5.63
2023-01-05T07:25:03.653Z,6.07
2023-01-05T07:27:54.686Z,5.65
2023-01-05T07:30:39.629Z,5.18
2023-01-05T07:33:24.658Z,6.00
2023-01-05T07:36:09.887Z,6.47
2023-01-05T07:38:57.683Z,5.63
2023-01-05T07:41:45.124Z,6.30
2023-01-05T07:44:30.126Z,5.25
2023-01-05T07:47:15.462Z,5.78
2023-01-05T07:50:00.599Z,6.25
2023-01-05T07:52:45.743Z,6.53
2023-01-05T07:55:30.622Z,6.57
2023-01-05T07:58:15.652Z,5.90
2023-01-05T08:01:08.808Z,5.93
2023-01-05T08:03:54.465Z,6.88
2023-01-05T08:06:39.912Z,7.15
2023-01-05T08:09:43.880Z,5.78
2023-01-05T08:13:07.496Z,6.02
2023-01-05T08:15:54.406Z,4.25
2023-01-05T08:18:39.533Z,6.72
2023-01-05T08:21:25.320Z,7.72
2023-01-05T08:24:10.282Z,5.88
2023-01-05T08:26:55.632Z,6.03
2023-01-05T08:29:42.070Z,6.47
2023-01-05T08:32:26.928Z,5.68
2023-01-05T08:35:11.925Z,6.30
2023-01-05T08:37:57.254Z,6.03
2023-01-05T08:40:42.495Z,4.72
2023-01-05T08:43:27.887Z,4.88
2023-01-05T08:46:13.171Z,5.25
2023-01-05T08:49:01.553Z,5.03
2023-01-05T08:51:46.848Z,4.72
2023-01-05T08:54:32.133Z,5.68
2023-01-05T08:57:17.247Z,4.47
2023-01-05T09:00:03.456Z,4.38
2023-01-05T09:02:49.200Z,4.63
2023-01-05T09:05:34.088Z,4.55
2023-01-05T09:08:18.987Z,4.95
2023-01-05T09:11:16.446Z,5.55
2023-01-05T09:14:04.849Z,5.13
2023-01-05T09:17:06.441Z,4.15
2023-01-05T09:19:52.280Z,4.55
2023-01-05T09:22:37.323Z,3.75
2023-01-05T09:25:22.643Z,4.57
2023-01-05T09:28:08.009Z,4.70
2023-01-05T09:30:53.424Z,4.03
2023-01-05T09:33:39.925Z,3.13
2023-01-05T09:36:25.825Z,3.70
2023-01-05T09:39:10.855Z,3.33
2023-01-05T09:42:02.859Z,3.15
2023-01-05T09:44:58.409Z,3.28
2023-01-05T09:47:46.716Z,2.95
2023-01-05T09:50:31.967Z,2.90
2023-01-05T09:53:29.751Z,2.80
2023-01-05T09:59:42.978Z,2.67
2023-01-05T10:02:37.557Z,2.63
2023-01-05T10:05:23.944Z,2.50
2023-01-05T10:08:32.573Z,2.65
2023-01-05T10:11:41.307Z,2.63
2023-01-05T10:14:33.900Z,2.63
2023-01-05T10:21:01.745Z,2.15
2023-01-05T10:24:24.390Z,2.40
2023-01-05T10:27:27.255Z,1.92
2023-01-05T10:30:23.947Z,2.03
2023-01-05T10:33:51.654Z,1.73
2023-01-05T10:37:07.558Z,1.73
2023-01-05T10:39:59.444Z,1.17
2023-01-05T10:42:53.438Z,1.67
2023-01-05T10:45:51.357Z,1.35
2023-01-05T10:48:43.425Z,1.55
2023-01-05T10:51:33.659Z,1.23
2023-01-05T10:54:29.292Z,1.10
2023-01-05T10:57:34.780Z,1.20
2023-01-05T11:00:22.651Z,0.80
2023-01-05T11:03:15.068Z,1.00
2023-01-05T11:06:00.542Z,1.10
2023-01-05T11:08:46.335Z,0.90
2023-01-05T11:11:31.550Z,0.90
2023-01-05T11:14:16.868Z,1.00
2023-01-05T11:17:06.120Z,1.33
2023-01-05T11:19:53.830Z,0.88
2023-01-05T11:22:47.953Z,0.70
2023-01-05T11:25:33.520Z,0.98
2023-01-05T11:28:18.596Z,0.90
2023-01-05T11:31:05.933Z,0.85
2023-01-05T11:33:58.062Z,1.00
2023-01-05T11:36:50.931Z,1.20
2023-01-05T11:39:45.929Z,0.90
2023-01-05T11:42:34.171Z,1.30
2023-01-05T11:45:25.719Z,1.88
2023-01-05T11:48:19.577Z,1.20
2023-01-05T11:51:05.288Z,1.15
2023-01-05T11:53:50.612Z,1.80
2023-01-05T11:56:35.568Z,1.30
2023-01-05T11:59:30.328Z,1.30
2023-01-05T12:02:30.590Z,1.67
2023-01-05T12:05:26.445Z,1.67
2023-01-05T12:08:17.531Z,1.70
2023-01-05T12:11:16.770Z,1.70
2023-01-05T12:14:07.924Z,1.63
2023-01-05T12:16:56.873Z,1.95
2023-01-05T12:20:20.451Z,1.90
2023-01-05T12:23:32.201Z,2.35
2023-01-05T12:26:27.317Z,1.92
2023-01-05T12:31:29.411Z,1.80
2023-01-05T12:36:19.374Z,1.77
2023-01-05T12:42:08.586Z,1.88
2023-01-05T12:45:18.763Z,1.52
2023-01-05T12:48:09.666Z,1.50
2023-01-05T12:51:04.907Z,2.15
2023-01-05T12:54:02.238Z,2.42
2023-01-05T12:56:51.748Z,1.65
2023-01-05T12:59:52.580Z,2.17
2023-01-05T13:02:41.796Z,2.20
2023-01-05T13:05:46.748Z,2.40
2023-01-05T13:08:51.116Z,1.73
2023-01-05T13:11:41.607Z,2.28
2023-01-05T13:14:32.431Z,2.53
2023-01-05T13:17:30.528Z,2.63
2023-01-05T13:20:38.331Z,2.10
2023-01-05T13:23:26.787Z,2.03
2023-01-05T13:26:16.494Z,2.88
2023-01-05T13:29:01.603Z,2.72
2023-01-05T13:32:16.002Z,2.72
2023-01-05T13:35:42.724Z,2.80
2023-01-05T13:38:33.572Z,3.50
2023-01-05T13:41:32.516Z,3.17
2023-01-05T13:44:38.936Z,2.88
2023-01-05T13:47:46.371Z,2.60
2023-01-05T13:50:50.427Z,2.63
2023-01-05T13:53:40.055Z,2.88
2023-01-05T13:59:44.423Z,3.20
2023-01-05T14:02:38.981Z,2.90
2023-01-05T14:05:42.795Z,3.50
2023-01-05T14:08:35.905Z,3.05
2023-01-05T14:11:23.753Z,2.72
2023-01-05T14:14:27.325Z,3.28
2023-01-05T14:17:12.594Z,2.97
2023-01-05T14:19:57.847Z,3.22
2023-01-05T14:22:43.880Z,3.13
2023-01-05T14:25:38.580Z,3.72
2023-01-05T14:28:30.154Z,3.50
2023-01-05T14:31:16.581Z,3.05
2023-01-05T14:34:04.926Z,3.45
2023-01-05T14:37:01.877Z,4.00
2023-01-05T14:39:47.870Z,3.78
2023-01-05T14:42:39.753Z,3.35
2023-01-05T14:45:36.997Z,2.85
2023-01-05T14:48:31.572Z,3.75
2023-01-05T14:51:18.693Z,3.35
2023-01-05T14:54:05.488Z,3.38
2023-01-05T14:57:35.184Z,4.13
2023-01-05T15:03:28.546Z,3.75
2023-01-05T15:06:19.307Z,4.25
2023-01-05T15:09:42.203Z,3.42
2023-01-05T15:12:27.351Z,3.63
2023-01-05T15:15:29.947Z,4.10
2023-01-05T15:18:56.894Z,3.72
2023-01-05T15:22:08.234Z,4.45
2023-01-05T15:25:10.531Z,4.03
2023-01-05T15:28:26.079Z,4.22
2023-01-05T15:31:20.444Z,4.03
2023-01-05T15:34:30.509Z,3.72
2023-01-05T15:43:04.179Z,3.50
2023-01-05T15:45:53.396Z,4.38
2023-01-05T15:48:45.175Z,4.10
2023-01-05T15:51:32.677Z,3.70
2023-01-05T15:54:27.754Z,3.80
2023-01-05T15:57:21.126Z,3.45
2023-01-05T16:00:21.943Z,3.58
2023-01-05T16:03:30.675Z,4.28
2023-01-05T16:06:20.177Z,4.75
2023-01-05T16:09:19.334Z,3.88
2023-01-05T16:12:09.255Z,3.63
2023-01-05T16:15:01.689Z,4.57
2023-01-05T16:17:47.667Z,3.60
2023-01-05T16:20:34.673Z,4.15
2023-01-05T16:23:44.568Z,4.28
2023-01-05T16:26:29.912Z,3.75
2023-01-05T16:29:33.516Z,3.63
2023-01-05T16:32:41.753Z,4.07
2023-01-05T16:35:38.092Z,4.30
2023-01-05T16:38:26.575Z,4.65
2023-01-05T16:41:21.177Z,3.60
2023-01-05T16:44:13.294Z,3.75
2023-01-05T16:47:10.469Z,3.83
2023-01-05T16:49:58.305Z,3.83
2023-01-05T16:52:54.278Z,3.28
2023-01-05T16:55:39.818Z,3.80
2023-01-05T16:58:31.764Z,3.88
2023-01-05T17:01:33.866Z,2.83
2023-01-05T17:04:19.107Z,3.67
2023-01-05T17:07:04.117Z,3.13
2023-01-05T17:09:49.908Z,2.75
2023-01-05T17:12:35.566Z,2.83
2023-01-05T17:15:24.472Z,2.75
2023-01-05T17:18:18.255Z,3.28
2023-01-05T17:21:05.126Z,3.25
2023-01-05T17:23:53.958Z,3.08
2023-01-05T17:26:43.601Z,4.00
2023-01-05T17:29:32.523Z,3.03
2023-01-05T17:32:17.668Z,2.45
2023-01-05T17:35:02.827Z,2.40
2023-01-05T17:37:48.127Z,2.25
2023-01-05T17:40:33.328Z,1.92
2023-01-05T17:43:18.963Z,2.00
2023-01-05T17:46:04.507Z,2.00
2023-01-05T17:48:49.905Z,2.30
2023-01-05T17:51:35.240Z,2.55
2023-01-05T17:54:20.408Z,1.70
2023-01-05T17:57:05.913Z,1.88
2023-01-05T17:59:51.256Z,1.50
2023-01-05T18:02:37.051Z,1.60
2023-01-05T18:05:22.536Z,1.15
2023-01-05T18:08:07.686Z,1.10
2023-01-05T18:10:53.750Z,1.38
2023-01-05T18:13:38.679Z,1.52
2023-01-05T18:16:25.037Z,1.20
2023-01-05T18:19:11.737Z,1.38
2023-01-05T18:21:56.586Z,1.42
2023-01-05T18:24:42.699Z,1.73
2023-01-05T18:27:27.519Z,2.28
2023-01-05T18:30:13.346Z,1.58
2023-01-05T18:32:58.738Z,1.60
2023-01-05T18:35:44.172Z,1.48
2023-01-05T18:38:29.468Z,1.52
2023-01-05T18:41:14.567Z,1.65
2023-01-05T18:44:00.098Z,1.70
2023-01-05T18:46:45.471Z,2.17
2023-01-05T18:49:30.816Z,1.98
2023-01-05T18:52:16.176Z,1.50
2023-01-05T18:55:01.863Z,2.00
2023-01-05T18:57:46.894Z,1.88
2023-01-05T19:00:33.194Z,1.85
2023-01-05T19:03:18.228Z,2.20
2023-01-05T19:06:15.807Z,2.00
2023-01-05T19:09:03.206Z,2.78
2023-01-05T19:11:48.643Z,1.90
2023-01-05T19:14:33.592Z,2.53
2023-01-05T19:17:18.816Z,2.10
2023-01-05T19:20:04.239Z,2.65
2023-01-05T19:22:49.405Z,2.70
2023-01-05T19:25:34.395Z,1.90
2023-01-05T19:28:19.646Z,2.45
2023-01-05T19:31:10.392Z,2.70
2023-01-05T19:33:58.903Z,2.47
2023-01-05T19:36:44.124Z,2.53
2023-01-05T19:39:29.162Z,2.47
2023-01-05T19:42:14.142Z,2.50
2023-01-05T19:44:59.753Z,2.55
2023-01-05T19:47:44.958Z,2.72
2023-01-05T19:50:29.942Z,2.38
2023-01-05T19:53:15.166Z,2.75
2023-01-05T19:56:08.635Z,2.00
2023-01-05T19:58:56.145Z,1.90
2023-01-05T20:01:41.441Z,2.72
2023-01-05T20:04:27.040Z,2.50
2023-01-05T20:07:12.582Z,2.38
2023-01-05T20:09:58.202Z,2.15
2023-01-05T20:12:43.300Z,2.67
2023-01-05T20:15:28.412Z,2.55
2023-01-05T20:18:13.697Z,2.42
2023-01-05T20:21:00.560Z,2.63
2023-01-05T20:23:45.495Z,2.38
2023-01-05T20:26:31.186Z,2.53
2023-01-05T20:29:18.211Z,2.08
2023-01-05T20:32:10.822Z,2.15
2023-01-05T20:35:00.116Z,2.35
2023-01-05T20:37:45.358Z,2.00
2023-01-05T20:40:30.358Z,2.15
2023-01-05T20:43:15.651Z,1.90
2023-01-05T20:46:00.896Z,2.58
2023-01-05T20:48:46.019Z,2.90
2023-01-05T20:51:31.286Z,2.25
2023-01-05T20:54:16.870Z,2.60
2023-01-05T20:57:02.141Z,2.33
2023-01-05T20:59:47.683Z,2.20
2023-01-05T21:02:32.621Z,2.03
2023-01-05T21:05:17.769Z,1.58
2023-01-05T21:08:02.737Z,2.10
2023-01-05T21:10:53.569Z,1.90
2023-01-05T21:13:38.695Z,1.88
2023-01-05T21:16:25.353Z,1.98
2023-01-05T21:19:17.175Z,1.27
2023-01-05T21:22:02.510Z,2.08
2023-01-05T21:24:47.514Z,1.55
2023-01-05T21:27:32.470Z,1.73
2023-01-05T21:30:17.687Z,1.67
2023-01-05T21:33:03.167Z,2.38
2023-01-05T21:35:53.401Z,1.75
2023-01-05T21:39:02.299Z,2.05
2023-01-05T21:42:02.082Z,2.40
2023-01-05T21:44:47.973Z,1.60
2023-01-05T21:47:35.837Z,1.67
2023-01-05T21:50:39.284Z,1.80
2023-01-05T21:53:43.235Z,1.70
2023-01-05T21:56:29.796Z,1.45
2023-01-05T21:59:14.843Z,2.00
2023-01-05T22:02:00.167Z,1.67
2023-01-05T22:04:46.034Z,1.35
2023-01-05T22:07:31.306Z,1.40
2023-01-05T22:10:17.439Z,1.48
2023-01-05T22:13:03.048Z,1.40
2023-01-05T22:15:48.491Z,1.38
2023-01-05T22:18:33.879Z,1.45
2023-01-05T22:21:19.093Z,1.50
2023-01-05T22:24:05.184Z,1.13
2023-01-05T22:26:50.190Z,1.63
2023-01-05T22:29:35.401Z,2.03
2023-01-05T22:32:20.502Z,1.50
2023-01-05T22:35:05.947Z,1.88
2023-01-05T22:37:53.165Z,1.40
2023-01-05T22:40:38.443Z,2.00
2023-01-05T22:43:23.717Z,1.50
2023-01-05T22:46:12.820Z,1.65
2023-01-05T22:48:59.115Z,1.48
2023-01-05T22:51:46.261Z,1.92
2023-01-05T22:54:31.666Z,1.90
2023-01-05T22:57:16.615Z,1.48
2023-01-05T23:00:01.637Z,1.38
2023-01-05T23:02:46.818Z,1.77
2023-01-05T23:05:32.041Z,1.50
2023-01-05T23:08:17.374Z,1.30
2023-01-05T23:11:05.963Z,1.30
2023-01-05T23:13:52.513Z,1.27
2023-01-05T23:16:38.441Z,1.30
2023-01-05T23:19:23.769Z,1.25
2023-01-05T23:22:10.781Z,1.38
2023-01-05T23:24:56.796Z,1.50
2023-01-05T23:27:41.663Z,1.70
2023-01-05T23:30:26.569Z,1.52
2023-01-05T23:33:11.960Z,1.38
2023-01-05T23:35:57.148Z,1.08
2023-01-05T23:38:42.853Z,1.58
2023-01-05T23:41:27.809Z,1.38
2023-01-05T23:44:14.116Z,1.40
2023-01-05T23:46:59.069Z,1.80
2023-01-05T23:49:44.152Z,1.40
2023-01-05T23:52:29.312Z,1.30
2023-01-05T23:55:14.318Z,1.30
2023-01-05T23:57:59.617Z,1.50
